createdAt,value
2019-03-23T00:00:05.634Z,77.70
2019-03-23T00:02:34.367Z,77.70
2019-03-23T00:05:03.287Z,79.40
2019-03-23T00:07:31.964Z,79.30
2019-03-23T00:10:00.708Z,78.60
2019-03-23T00:12:29.381Z,78.60
2019-03-23T00:14:58.140Z,76.60
2019-03-23T00:17:26.854Z,73.30
2019-03-23T00:19:55.660Z,71.00
2019-03-23T00:22:24.391Z,71.20
2019-03-23T00:24:53.064Z,71.30
2019-03-23T00:27:21.783Z,70.00
2019-03-23T00:29:50.520Z,67.60
2019-03-23T00:32:19.226Z,65.10
2019-03-23T00:34:48.044Z,64.90
2019-03-23T00:37:16.797Z,67.60
2019-03-23T00:39:45.516Z,67.60
2019-03-23T00:42:14.414Z,68.30
2019-03-23T00:44:43.089Z,68.00
2019-03-23T00:47:11.685Z,70.70
2019-03-23T00:49:40.414Z,71.80
2019-03-23T00:52:09.162Z,70.90
2019-03-23T00:54:37.866Z,70.90
2019-03-23T00:57:06.795Z,70.50
2019-03-23T00:59:35.503Z,70.60
2019-03-23T01:02:04.250Z,70.90
2019-03-23T01:04:32.962Z,69.50
2019-03-23T01:07:01.739Z,68.10
2019-03-23T01:09:30.388Z,63.90
2019-03-23T01:11:59.055Z,59.10
2019-03-23T01:14:27.824Z,55.30
2019-03-23T01:16:56.630Z,53.50
2019-03-23T01:19:25.322Z,54.00
2019-03-23T01:21:54.054Z,54.40
2019-03-23T01:24:22.616Z,56.00
2019-03-23T01:26:51.379Z,57.20
2019-03-23T01:29:20.106Z,59.90
2019-03-23T01:31:48.725Z,60.20
2019-03-23T01:34:17.484Z,61.40
2019-03-23T01:36:46.278Z,62.20
2019-03-23T01:39:14.915Z,61.90
2019-03-23T01:41:43.683Z,61.70
2019-03-23T01:44:12.283Z,61.80
2019-03-23T01:46:40.950Z,61.90
2019-03-23T01:49:09.583Z,63.40
2019-03-23T01:51:38.380Z,64.40
2019-03-23T01:54:07.151Z,65.60
2019-03-23T01:56:35.892Z,68.00
2019-03-23T01:59:04.593Z,70.60
2019-03-23T02:04:51.107Z,73.30
2019-03-23T02:07:19.969Z,75.90
2019-03-23T02:09:48.626Z,76.80
2019-03-23T02:12:17.371Z,77.20
2019-03-23T02:14:46.142Z,75.50
2019-03-23T02:17:14.737Z,74.40
2019-03-23T02:19:43.536Z,73.90
2019-03-23T02:22:12.323Z,74.40
2019-03-23T02:24:41.083Z,75.90
2019-03-23T02:27:09.900Z,76.70
2019-03-23T02:29:38.679Z,76.90
2019-03-23T02:32:07.315Z,77.30
2019-03-23T02:34:35.885Z,77.70
2019-03-23T02:37:04.587Z,77.80
2019-03-23T02:39:33.258Z,78.00
2019-03-23T02:42:01.952Z,78.30
2019-03-23T02:44:30.643Z,79.20
2019-03-23T02:46:59.325Z,79.20
2019-03-23T02:49:28.016Z,79.50
2019-03-23T02:51:56.799Z,79.40
2019-03-23T02:54:25.580Z,79.20
2019-03-23T02:56:54.230Z,80.20
2019-03-23T02:59:22.871Z,81.30
2019-03-23T03:01:51.647Z,82.20
2019-03-23T03:04:20.389Z,83.20
2019-03-23T03:06:49.109Z,82.40
2019-03-23T03:09:17.843Z,82.40
2019-03-23T03:11:46.429Z,82.80
2019-03-23T03:14:15.184Z,83.40
2019-03-23T03:16:43.902Z,84.40
2019-03-23T03:19:12.654Z,85.90
2019-03-23T03:21:41.212Z,88.00
2019-03-23T03:24:09.979Z,90.00
2019-03-23T03:26:38.626Z,90.90
2019-03-23T03:29:07.409Z,91.70
2019-03-23T03:31:36.197Z,92.70
2019-03-23T03:34:04.883Z,93.20
2019-03-23T03:36:33.631Z,94.10
2019-03-23T03:39:02.477Z,94.70
2019-03-23T03:41:31.235Z,94.80
2019-03-23T03:43:59.962Z,94.90
2019-03-23T03:46:28.642Z,95.30
2019-03-23T03:49:11.483Z,95.50
2019-03-23T03:51:27.763Z,95.60
2019-03-23T03:53:56.476Z,95.70
2019-03-23T03:56:25.081Z,95.90
2019-03-23T03:58:53.719Z,96.10
2019-03-23T04:01:22.402Z,96.10
2019-03-23T04:03:51.228Z,96.00
2019-03-23T04:06:19.966Z,96.00
2019-03-23T04:08:48.743Z,95.90
2019-03-23T04:11:17.413Z,95.70
2019-03-23T04:13:46.083Z,95.40
2019-03-23T04:16:14.794Z,95.30
2019-03-23T04:18:43.537Z,95.40
2019-03-23T04:21:12.228Z,95.40
2019-03-23T04:23:40.915Z,95.40
2019-03-23T04:26:09.527Z,95.40
2019-03-23T04:28:38.221Z,95.20
2019-03-23T04:31:07.012Z,95.00
2019-03-23T04:33:35.665Z,94.70
2019-03-23T04:36:04.404Z,94.70
2019-03-23T04:38:33.176Z,95.00
2019-03-23T04:41:01.798Z,95.20
2019-03-23T04:43:30.685Z,95.40
2019-03-23T04:45:59.414Z,95.70
2019-03-23T04:48:28.196Z,95.90
2019-03-23T04:50:56.914Z,95.90
2019-03-23T04:53:25.627Z,95.80
2019-03-23T04:55:54.361Z,95.80
2019-03-23T04:58:23.022Z,96.00
2019-03-23T05:00:51.744Z,95.90
2019-03-23T05:03:20.467Z,96.10
2019-03-23T05:05:49.143Z,96.10
2019-03-23T05:08:17.849Z,96.20
2019-03-23T05:10:47.221Z,96.20
2019-03-23T05:13:15.834Z,96.10
2019-03-23T05:15:44.467Z,96.10
2019-03-23T05:18:13.147Z,95.90
2019-03-23T05:20:41.859Z,95.60
2019-03-23T05:23:10.650Z,95.30
2019-03-23T05:25:39.364Z,94.90
2019-03-23T05:28:08.131Z,94.60
2019-03-23T05:30:36.906Z,94.70
2019-03-23T05:33:05.798Z,94.60
2019-03-23T05:35:34.946Z,94.10
2019-03-23T05:38:03.781Z,93.90
2019-03-23T05:40:32.530Z,93.80
2019-03-23T05:43:01.305Z,93.80
2019-03-23T05:45:30.003Z,93.90
2019-03-23T05:47:58.756Z,93.80
2019-03-23T05:50:27.427Z,93.80
2019-03-23T05:52:56.023Z,93.80
2019-03-23T05:55:24.720Z,93.90
2019-03-23T05:57:53.352Z,94.00
2019-03-23T06:00:22.202Z,94.00
2019-03-23T06:02:51.080Z,93.90
2019-03-23T06:05:19.960Z,93.90
2019-03-23T06:07:48.895Z,93.50
2019-03-23T06:10:17.766Z,92.90
2019-03-23T06:12:46.477Z,92.50
2019-03-23T06:15:15.276Z,92.50
2019-03-23T06:17:44.076Z,92.40
2019-03-23T06:20:13.303Z,92.30
2019-03-23T06:22:42.151Z,91.70
2019-03-23T06:25:11.161Z,91.10
2019-03-23T06:27:39.882Z,90.70
2019-03-23T06:30:10.706Z,90.80
2019-03-23T06:32:39.476Z,91.00
2019-03-23T06:35:08.785Z,91.00
2019-03-23T06:37:37.437Z,90.70
2019-03-23T06:40:08.695Z,90.70
2019-03-23T06:42:37.521Z,90.70
2019-03-23T06:45:08.858Z,90.60
2019-03-23T06:47:37.932Z,90.70
2019-03-23T06:50:08.938Z,90.80
2019-03-23T06:52:37.859Z,90.70
2019-03-23T06:55:08.362Z,90.70
2019-03-23T06:57:37.127Z,90.50
2019-03-23T07:00:08.687Z,90.30
2019-03-23T07:02:37.629Z,90.40
2019-03-23T07:05:08.743Z,90.40
2019-03-23T07:07:37.616Z,90.40
2019-03-23T07:10:09.087Z,90.00
2019-03-23T07:12:37.928Z,89.40
2019-03-23T07:15:19.546Z,88.90
2019-03-23T07:17:40.152Z,88.60
2019-03-23T07:20:11.589Z,87.80
2019-03-23T07:22:40.531Z,88.30
2019-03-23T07:25:10.966Z,87.60
2019-03-23T07:27:39.787Z,87.60
2019-03-23T07:30:11.878Z,87.30
2019-03-23T07:32:40.728Z,87.00
2019-03-23T07:35:10.148Z,86.70
2019-03-23T07:37:38.948Z,85.50
2019-03-23T07:40:09.923Z,85.30
2019-03-23T07:42:39.047Z,84.60
2019-03-23T07:45:10.295Z,85.00
2019-03-23T07:47:39.199Z,84.20
2019-03-23T07:50:10.129Z,83.20
2019-03-23T07:52:38.893Z,81.90
2019-03-23T07:55:10.124Z,81.20
2019-03-23T07:57:38.967Z,80.50
2019-03-23T08:00:10.195Z,79.30
2019-03-23T08:02:39.410Z,78.30
2019-03-23T08:41:15.842Z,65.10
2019-03-23T08:43:44.796Z,63.90
2019-03-23T08:46:13.563Z,63.80
2019-03-23T08:48:42.377Z,63.60
2019-03-23T08:51:11.129Z,63.60
2019-03-23T08:53:40.012Z,62.70
2019-03-23T08:56:08.736Z,60.80
2019-03-23T11:03:10.519Z,28.90
2019-03-23T11:05:39.348Z,27.80
2019-03-23T11:08:08.285Z,27.00
2019-03-23T11:10:41.778Z,26.30
2019-03-23T11:13:07.753Z,25.70
2019-03-23T11:15:36.512Z,25.00
2019-03-23T11:18:05.662Z,25.00
2019-03-23T11:20:34.783Z,24.50
2019-03-23T11:23:03.570Z,24.60
2019-03-23T11:25:32.678Z,24.70
2019-03-23T11:28:01.600Z,24.00
2019-03-23T11:30:30.547Z,23.70
2019-03-23T11:32:59.347Z,23.40
2019-03-23T11:35:28.162Z,22.00
2019-03-23T11:37:57.038Z,21.90
2019-03-23T11:40:26.183Z,22.00
2019-03-23T11:42:54.862Z,21.20
2019-03-23T11:45:23.818Z,22.00
2019-03-23T11:47:53.132Z,21.00
2019-03-23T11:50:22.026Z,22.00
2019-03-23T11:52:51.481Z,21.80
2019-03-23T11:55:20.269Z,20.80
2019-03-23T11:57:49.093Z,20.90
2019-03-23T12:00:18.698Z,20.70
2019-03-23T12:02:47.462Z,20.30
2019-03-23T12:05:16.298Z,20.10
2019-03-23T12:07:45.223Z,18.40
2019-03-23T12:10:14.698Z,16.30
2019-03-23T12:12:43.427Z,15.50
2019-03-23T12:15:13.539Z,14.90
2019-03-23T12:17:44.947Z,13.40
2019-03-23T12:20:14.085Z,12.30
2019-03-23T12:22:42.935Z,10.40
2019-03-23T12:25:11.995Z,10.70
2019-03-23T12:27:40.997Z,9.70
2019-03-23T12:30:13.087Z,10.60
2019-03-23T12:32:41.974Z,12.10
2019-03-23T12:35:11.612Z,13.40
2019-03-23T12:37:40.710Z,13.10
2019-03-23T12:40:10.329Z,14.30
2019-03-23T12:42:39.701Z,14.20
2019-03-23T12:45:10.447Z,14.60
2019-03-23T12:47:39.222Z,14.80
2019-03-23T12:50:09.176Z,15.30
2019-03-23T12:52:38.263Z,14.50
2019-03-23T12:55:07.795Z,13.50
2019-03-23T12:57:36.698Z,13.50
2019-03-23T13:00:08.663Z,13.30
2019-03-23T13:02:39.034Z,13.40
2019-03-23T13:05:08.310Z,13.40
2019-03-23T13:07:37.154Z,13.00
2019-03-23T13:10:08.699Z,13.00
2019-03-23T13:12:37.575Z,12.50
2019-03-23T13:15:08.657Z,13.00
2019-03-23T13:17:37.518Z,13.80
2019-03-23T13:20:08.829Z,13.30
2019-03-23T13:22:38.045Z,14.10
2019-03-23T13:25:10.204Z,13.70
2019-03-23T13:27:39.187Z,13.50
2019-03-23T13:30:11.132Z,13.20
2019-03-23T13:32:39.995Z,14.20
2019-03-23T13:35:09.958Z,14.70
2019-03-23T13:37:39.073Z,15.40
2019-03-23T13:40:10.560Z,15.80
2019-03-23T13:42:39.433Z,16.70
2019-03-23T13:45:09.123Z,17.70
2019-03-23T13:47:38.727Z,17.50
2019-03-23T13:50:11.888Z,17.90
2019-03-23T13:52:40.807Z,17.80
2019-03-23T13:55:13.152Z,17.00
2019-03-23T13:57:43.453Z,17.20
2019-03-23T14:00:12.554Z,17.30
2019-03-23T14:02:41.723Z,17.20
2019-03-23T14:05:16.142Z,17.30
2019-03-23T14:07:41.162Z,15.70
2019-03-23T14:10:10.309Z,16.30
2019-03-23T14:12:40.110Z,16.50
2019-03-23T14:15:09.460Z,16.80
2019-03-23T14:17:38.354Z,17.30
2019-03-23T14:20:08.278Z,18.00
2019-03-23T14:22:37.091Z,18.60
2019-03-23T14:25:07.556Z,20.10
2019-03-23T14:27:36.411Z,22.10
2019-03-23T14:30:07.245Z,23.10
2019-03-23T14:32:36.492Z,23.40
2019-03-23T14:35:06.541Z,24.40
2019-03-23T14:37:35.571Z,24.70
2019-03-23T14:40:05.338Z,25.00
2019-03-23T14:42:36.220Z,24.80
2019-03-23T14:45:06.606Z,25.00
2019-03-23T14:47:35.803Z,24.50
2019-03-23T14:50:07.838Z,25.00
2019-03-23T14:52:36.884Z,25.20
2019-03-23T14:55:07.320Z,25.70
2019-03-23T14:57:36.211Z,26.00
2019-03-23T15:00:08.053Z,26.30
2019-03-23T15:02:38.437Z,26.60
2019-03-23T15:05:08.196Z,27.30
2019-03-23T15:07:38.218Z,28.30
2019-03-23T15:10:08.610Z,28.00
2019-03-23T15:12:37.462Z,28.40
2019-03-23T15:15:07.820Z,28.40
2019-03-23T15:17:36.670Z,28.50
2019-03-23T15:20:07.056Z,28.10
2019-03-23T15:22:35.881Z,28.50
2019-03-23T15:25:07.205Z,28.50
2019-03-23T15:27:36.923Z,28.40
2019-03-23T15:30:07.716Z,28.50
2019-03-23T15:32:36.562Z,28.40
2019-03-23T15:35:07.258Z,29.20
2019-03-23T15:37:36.862Z,30.00
2019-03-23T15:40:10.367Z,30.70
2019-03-23T15:42:39.193Z,31.30
2019-03-23T15:45:08.857Z,32.60
2019-03-23T15:47:38.425Z,33.00
2019-03-23T15:50:08.385Z,33.50
2019-03-23T15:52:37.352Z,34.20
2019-03-23T15:55:07.331Z,34.60
2019-03-23T15:57:36.716Z,35.70
2019-03-23T16:00:08.458Z,37.40
2019-03-23T16:02:37.374Z,37.70
2019-03-23T16:05:07.969Z,38.50
2019-03-23T16:07:36.795Z,38.70
2019-03-23T16:10:08.716Z,39.00
2019-03-23T16:12:37.924Z,38.70
2019-03-23T16:15:09.460Z,38.90
2019-03-23T16:17:39.476Z,39.20
2019-03-23T16:20:10.992Z,39.50
2019-03-23T16:22:39.828Z,39.30
2019-03-23T16:25:10.384Z,39.50
2019-03-23T16:27:39.142Z,40.40
2019-03-23T16:30:10.850Z,41.00
2019-03-23T16:32:39.816Z,41.40
2019-03-23T16:35:09.933Z,41.50
2019-03-23T16:37:38.771Z,41.60
2019-03-23T16:40:09.494Z,42.00
2019-03-23T16:42:45.168Z,42.40
2019-03-23T16:45:10.328Z,42.60
2019-03-23T16:47:39.308Z,42.70
2019-03-23T16:50:09.735Z,43.50
2019-03-23T16:52:38.897Z,43.50
2019-03-23T16:55:09.773Z,43.90
2019-03-23T16:57:38.767Z,44.50
2019-03-23T17:00:10.523Z,44.60
2019-03-23T17:02:39.484Z,45.20
2019-03-23T17:05:08.697Z,45.60
2019-03-23T17:07:37.541Z,46.10
2019-03-23T17:10:07.329Z,46.70
2019-03-23T17:12:36.460Z,47.40
2019-03-23T17:15:07.930Z,47.40
2019-03-23T17:17:36.983Z,47.50
2019-03-23T17:20:07.052Z,48.30
2019-03-23T17:22:36.744Z,49.00
2019-03-23T17:25:07.719Z,49.50
2019-03-23T17:27:36.516Z,50.10
2019-03-23T17:30:07.379Z,50.80
2019-03-23T17:32:39.034Z,51.70
2019-03-23T17:35:08.526Z,52.40
2019-03-23T17:37:37.376Z,54.10
2019-03-23T17:40:07.866Z,55.90
2019-03-23T17:42:36.714Z,57.10
2019-03-23T17:45:07.833Z,59.10
2019-03-23T17:47:36.659Z,60.20
2019-03-23T17:50:07.252Z,60.20
2019-03-23T17:52:36.233Z,60.50
2019-03-23T17:55:06.832Z,61.00
2019-03-23T17:57:35.720Z,61.60
2019-03-23T18:00:07.405Z,61.80
2019-03-23T18:02:37.370Z,61.80
2019-03-23T18:05:08.583Z,62.30
2019-03-23T18:07:37.491Z,62.50
2019-03-23T18:10:08.102Z,63.90
2019-03-23T18:12:36.985Z,64.70
2019-03-23T18:15:08.421Z,66.50
2019-03-23T18:17:37.292Z,67.20
2019-03-23T18:20:07.029Z,69.00
2019-03-23T18:22:36.399Z,68.80
2019-03-23T18:25:07.267Z,70.00
2019-03-23T18:27:36.292Z,70.40
2019-03-23T18:30:07.892Z,70.80
2019-03-23T18:32:36.755Z,71.40
2019-03-23T18:35:07.012Z,72.70
2019-03-23T18:37:36.009Z,74.30
2019-03-23T18:40:08.252Z,76.00
2019-03-23T18:42:37.596Z,77.10
2019-03-23T18:45:07.361Z,78.60
2019-03-23T18:47:36.456Z,79.70
2019-03-23T18:50:07.275Z,81.90
2019-03-23T18:52:36.470Z,83.10
2019-03-23T18:55:09.202Z,85.00
2019-03-23T18:57:38.183Z,87.10
2019-03-23T19:00:07.965Z,88.60
2019-03-23T19:02:38.360Z,90.10
2019-03-23T19:05:07.705Z,90.60
2019-03-23T19:07:36.636Z,91.10
2019-03-23T19:10:07.245Z,92.10
2019-03-23T19:12:36.265Z,92.20
2019-03-23T19:15:06.940Z,92.90
2019-03-23T19:17:35.785Z,93.50
2019-03-23T19:20:06.580Z,94.10
2019-03-23T19:22:35.878Z,94.70
2019-03-23T19:25:15.876Z,95.20
2019-03-23T19:27:36.985Z,95.60
2019-03-23T19:30:08.137Z,96.00
2019-03-23T19:32:37.201Z,96.10
2019-03-23T19:35:07.233Z,96.50
2019-03-23T19:37:38.705Z,96.80
2019-03-23T19:40:07.446Z,97.20
2019-03-23T19:42:36.444Z,97.40
2019-03-23T19:45:07.509Z,97.60
2019-03-23T19:47:36.521Z,97.80
2019-03-23T19:50:07.498Z,97.90
2019-03-23T19:52:39.125Z,97.90
2019-03-23T19:55:08.831Z,97.90
2019-03-23T19:57:38.161Z,97.90
2019-03-23T20:00:09.867Z,98.00
2019-03-23T20:02:38.785Z,97.80
2019-03-23T20:05:08.042Z,97.80
2019-03-23T20:07:36.911Z,97.50
2019-03-23T20:10:08.090Z,97.50
2019-03-23T20:12:37.323Z,96.90
2019-03-23T20:15:08.792Z,96.90
2019-03-23T20:17:37.860Z,96.90
2019-03-23T20:20:08.362Z,97.00
2019-03-23T20:22:38.033Z,96.50
2019-03-23T20:25:07.666Z,96.00
2019-03-23T20:27:36.975Z,96.00
2019-03-23T20:30:08.288Z,95.50
2019-03-23T20:32:37.284Z,94.60
2019-03-23T20:35:08.345Z,94.50
2019-03-23T20:37:38.259Z,93.70
2019-03-23T20:40:10.000Z,91.90
2019-03-23T20:42:40.294Z,90.80
2019-03-23T20:45:10.226Z,90.10
2019-03-23T20:47:40.583Z,87.90
2019-03-23T20:50:10.779Z,85.40
2019-03-23T20:52:41.733Z,82.30
2019-03-23T20:55:13.293Z,79.40
2019-03-23T20:57:42.155Z,77.80
2019-03-23T21:00:11.885Z,74.80
2019-03-23T21:02:40.647Z,74.90
2019-03-23T21:05:11.040Z,73.90
2019-03-23T21:07:39.916Z,72.20
2019-03-23T21:10:09.056Z,72.60
2019-03-23T21:12:37.942Z,72.30
2019-03-23T21:15:07.018Z,72.60
2019-03-23T21:17:35.879Z,71.10
2019-03-23T21:20:06.385Z,71.50
2019-03-23T21:22:35.972Z,70.40
2019-03-23T21:25:06.488Z,70.40
2019-03-23T21:27:35.323Z,69.80
2019-03-23T21:30:07.170Z,69.40
2019-03-23T21:32:36.694Z,69.20
2019-03-23T21:35:06.441Z,70.40
2019-03-23T21:37:35.388Z,70.80
2019-03-23T21:40:05.934Z,70.30
2019-03-23T21:42:36.163Z,70.90
2019-03-23T21:45:10.616Z,70.90
2019-03-23T21:47:40.071Z,70.80
2019-03-23T21:50:12.697Z,70.80
2019-03-23T21:52:41.593Z,70.40
2019-03-23T21:55:11.219Z,70.10
2019-03-23T21:57:42.700Z,69.90
2019-03-23T22:00:12.352Z,70.30
2019-03-23T22:02:41.909Z,69.50
2019-03-23T22:05:12.526Z,70.50
2019-03-23T22:07:42.705Z,71.40
2019-03-23T22:10:12.036Z,71.10
2019-03-23T22:12:41.675Z,71.50
2019-03-23T22:15:11.113Z,72.00
2019-03-23T22:17:40.222Z,72.20
2019-03-23T22:20:10.601Z,73.40
2019-03-23T22:22:39.381Z,72.50
2019-03-23T22:25:08.624Z,72.70
2019-03-23T22:27:38.341Z,73.00
2019-03-23T22:30:10.070Z,73.20
2019-03-23T22:32:38.982Z,74.20
2019-03-23T22:35:08.404Z,74.90
2019-03-23T22:37:37.235Z,75.10
2019-03-23T22:40:08.409Z,75.10
2019-03-23T22:42:37.289Z,75.00
2019-03-23T22:45:07.921Z,75.80
2019-03-23T22:47:36.706Z,75.50
2019-03-23T22:50:07.385Z,75.70
2019-03-23T22:52:36.220Z,76.40
2019-03-23T22:55:07.289Z,76.30
2019-03-23T22:57:36.039Z,76.90
2019-03-23T23:00:07.764Z,77.10
2019-03-23T23:02:39.555Z,77.80
2019-03-23T23:05:08.841Z,77.40
2019-03-23T23:07:37.707Z,77.40
2019-03-23T23:10:07.337Z,77.20
2019-03-23T23:12:36.891Z,77.50
2019-03-23T23:15:07.649Z,78.00
2019-03-23T23:17:36.460Z,76.90
2019-03-23T23:20:07.513Z,77.30
2019-03-23T23:22:37.662Z,76.40
2019-03-23T23:25:07.323Z,76.40
2019-03-23T23:27:36.557Z,76.50
2019-03-23T23:30:07.983Z,77.10
2019-03-23T23:32:36.888Z,76.70
2019-03-23T23:35:08.131Z,77.10
2019-03-23T23:37:37.113Z,77.50
2019-03-23T23:40:07.850Z,77.50
2019-03-23T23:42:36.634Z,77.50
2019-03-23T23:45:15.491Z,78.00
2019-03-23T23:47:38.244Z,78.10
2019-03-23T23:50:09.641Z,78.10
2019-03-23T23:52:38.913Z,78.20
2019-03-23T23:55:07.961Z,78.20
2019-03-23T23:57:36.746Z,77.80
